Aurora, Ohio
Current Conditions -  °F | °C
As of 9:18 PM on Friday 24 Oct 2014 (Local Time) from KPOV Reporting Station
Overcast Overcast  
Wind Chill: 53°   Ceiling: 4300
Heat Index: 53°   Visibility: 10mi
Dew Point: 38°   Wind: 0mph
Humidity: 58%   Direction: NA
Pressure: 30.01"   Gusts: NA
Location:  41.31°N, 81.34°W
Report Text: KPOV 250118Z AUTO 00000KT 10SM OVC043 12/04 A3001 RMK AO2 T01160035
Loading
Personal Weather Stations






























Interactive Weather Map New forecast layout! Learn more

10-Day Weather Forecast

Advertisements
Track Severe Weather on mobile